sensor_id;sensor_type;location;lat;lon;timestamp;P1;durP1;ratioP1;P2;durP2;ratioP2
20689;SDS011;10504;48.762;8.996;2022-08-19T00:01:27;9.87;;;3.83;;
20689;SDS011;10504;48.762;8.996;2022-08-19T00:03:58;11.07;;;3.97;;
20689;SDS011;10504;48.762;8.996;2022-08-19T00:06:26;8.53;;;3.70;;
20689;SDS011;10504;48.762;8.996;2022-08-19T00:08:53;7.50;;;3.23;;
20689;SDS011;10504;48.762;8.996;2022-08-19T00:11:20;12.20;;;4.50;;
20689;SDS011;10504;48.762;8.996;2022-08-19T00:13:46;10.23;;;4.10;;
20689;SDS011;10504;48.762;8.996;2022-08-19T00:16:14;9.10;;;3.70;;
20689;SDS011;10504;48.762;8.996;2022-08-19T00:18:40;8.77;;;3.47;;
20689;SDS011;10504;48.762;8.996;2022-08-19T00:21:06;14.00;;;4.77;;
20689;SDS011;10504;48.762;8.996;2022-08-19T00:23:32;10.40;;;4.17;;
20689;SDS011;10504;48.762;8.996;2022-08-19T00:25:59;8.30;;;3.53;;
20689;SDS011;10504;48.762;8.996;2022-08-19T00:28:25;10.50;;;4.33;;
20689;SDS011;10504;48.762;8.996;2022-08-19T00:30:51;10.77;;;4.27;;
20689;SDS011;10504;48.762;8.996;2022-08-19T00:33:18;11.13;;;4.37;;
20689;SDS011;10504;48.762;8.996;2022-08-19T00:35:44;10.20;;;4.17;;
20689;SDS011;10504;48.762;8.996;2022-08-19T00:38:10;12.23;;;4.40;;
20689;SDS011;10504;48.762;8.996;2022-08-19T00:40:35;10.77;;;3.77;;
20689;SDS011;10504;48.762;8.996;2022-08-19T00:43:01;11.83;;;4.80;;
20689;SDS011;10504;48.762;8.996;2022-08-19T00:45:34;9.17;;;4.43;;
20689;SDS011;10504;48.762;8.996;2022-08-19T00:48:00;9.63;;;4.33;;
20689;SDS011;10504;48.762;8.996;2022-08-19T00:50:31;11.10;;;4.77;;
20689;SDS011;10504;48.762;8.996;2022-08-19T00:52:58;8.97;;;4.00;;
20689;SDS011;10504;48.762;8.996;2022-08-19T00:55:25;10.23;;;4.23;;
20689;SDS011;10504;48.762;8.996;2022-08-19T00:57:58;11.17;;;4.87;;
20689;SDS011;10504;48.762;8.996;2022-08-19T01:00:36;10.13;;;4.43;;
20689;SDS011;10504;48.762;8.996;2022-08-19T01:03:07;11.40;;;5.07;;
20689;SDS011;10504;48.762;8.996;2022-08-19T01:05:34;10.40;;;4.10;;
20689;SDS011;10504;48.762;8.996;2022-08-19T01:08:01;11.40;;;4.00;;
20689;SDS011;10504;48.762;8.996;2022-08-19T01:10:29;10.00;;;3.93;;
20689;SDS011;10504;48.762;8.996;2022-08-19T01:12:58;8.33;;;3.97;;
20689;SDS011;10504;48.762;8.996;2022-08-19T01:15:27;8.23;;;3.60;;
20689;SDS011;10504;48.762;8.996;2022-08-19T01:17:58;9.13;;;3.87;;
20689;SDS011;10504;48.762;8.996;2022-08-19T01:20:26;13.67;;;4.33;;
20689;SDS011;10504;48.762;8.996;2022-08-19T01:22:53;13.63;;;4.87;;
20689;SDS011;10504;48.762;8.996;2022-08-19T01:25:22;13.93;;;4.80;;
20689;SDS011;10504;48.762;8.996;2022-08-19T01:28:06;12.10;;;4.53;;
20689;SDS011;10504;48.762;8.996;2022-08-19T01:30:33;14.27;;;5.60;;
20689;SDS011;10504;48.762;8.996;2022-08-19T01:33:00;12.23;;;4.93;;
20689;SDS011;10504;48.762;8.996;2022-08-19T01:35:28;12.73;;;5.07;;
20689;SDS011;10504;48.762;8.996;2022-08-19T01:37:59;11.57;;;4.27;;
20689;SDS011;10504;48.762;8.996;2022-08-19T01:40:31;14.37;;;5.67;;
20689;SDS011;10504;48.762;8.996;2022-08-19T01:42:59;10.33;;;3.77;;
20689;SDS011;10504;48.762;8.996;2022-08-19T01:45:26;11.27;;;5.17;;
20689;SDS011;10504;48.762;8.996;2022-08-19T01:47:54;11.47;;;4.80;;
20689;SDS011;10504;48.762;8.996;2022-08-19T01:50:21;11.03;;;4.53;;
20689;SDS011;10504;48.762;8.996;2022-08-19T01:52:47;9.43;;;4.03;;
20689;SDS011;10504;48.762;8.996;2022-08-19T01:55:14;11.70;;;4.77;;
20689;SDS011;10504;48.762;8.996;2022-08-19T01:57:43;11.30;;;5.63;;
20689;SDS011;10504;48.762;8.996;2022-08-19T02:00:13;9.90;;;4.70;;
20689;SDS011;10504;48.762;8.996;2022-08-19T02:02:41;11.63;;;4.47;;
20689;SDS011;10504;48.762;8.996;2022-08-19T02:05:07;14.70;;;5.33;;
20689;SDS011;10504;48.762;8.996;2022-08-19T02:07:34;12.50;;;5.10;;
20689;SDS011;10504;48.762;8.996;2022-08-19T02:10:04;13.43;;;4.90;;
20689;SDS011;10504;48.762;8.996;2022-08-19T02:12:31;15.53;;;6.50;;
20689;SDS011;10504;48.762;8.996;2022-08-19T02:14:58;11.73;;;4.87;;
20689;SDS011;10504;48.762;8.996;2022-08-19T02:17:26;13.30;;;5.37;;
20689;SDS011;10504;48.762;8.996;2022-08-19T02:19:53;13.47;;;5.57;;
20689;SDS011;10504;48.762;8.996;2022-08-19T02:22:20;17.20;;;5.93;;
20689;SDS011;10504;48.762;8.996;2022-08-19T02:24:45;16.47;;;5.93;;
20689;SDS011;10504;48.762;8.996;2022-08-19T02:27:13;12.77;;;5.83;;
20689;SDS011;10504;48.762;8.996;2022-08-19T02:29:38;12.10;;;5.03;;
20689;SDS011;10504;48.762;8.996;2022-08-19T02:32:04;14.37;;;5.67;;
20689;SDS011;10504;48.762;8.996;2022-08-19T02:34:30;14.97;;;5.63;;
20689;SDS011;10504;48.762;8.996;2022-08-19T02:36:55;13.57;;;5.77;;
20689;SDS011;10504;48.762;8.996;2022-08-19T02:39:21;14.17;;;5.90;;
20689;SDS011;10504;48.762;8.996;2022-08-19T02:41:47;14.53;;;5.93;;
20689;SDS011;10504;48.762;8.996;2022-08-19T02:44:14;14.50;;;5.70;;
20689;SDS011;10504;48.762;8.996;2022-08-19T02:46:40;13.77;;;5.77;;
20689;SDS011;10504;48.762;8.996;2022-08-19T02:49:06;14.47;;;6.30;;
20689;SDS011;10504;48.762;8.996;2022-08-19T02:51:37;14.83;;;5.37;;
20689;SDS011;10504;48.762;8.996;2022-08-19T02:54:07;13.17;;;5.73;;
20689;SDS011;10504;48.762;8.996;2022-08-19T02:56:34;14.73;;;6.00;;
20689;SDS011;10504;48.762;8.996;2022-08-19T02:59:01;11.63;;;5.10;;
20689;SDS011;10504;48.762;8.996;2022-08-19T03:01:33;15.57;;;6.50;;
20689;SDS011;10504;48.762;8.996;2022-08-19T03:03:59;12.77;;;5.43;;
20689;SDS011;10504;48.762;8.996;2022-08-19T03:06:27;12.63;;;5.47;;
20689;SDS011;10504;48.762;8.996;2022-08-19T03:08:53;15.80;;;6.50;;
20689;SDS011;10504;48.762;8.996;2022-08-19T03:11:26;13.23;;;5.60;;
20689;SDS011;10504;48.762;8.996;2022-08-19T03:13:54;15.40;;;5.87;;
20689;SDS011;10504;48.762;8.996;2022-08-19T03:16:21;13.97;;;5.53;;
20689;SDS011;10504;48.762;8.996;2022-08-19T03:18:49;11.37;;;4.63;;
20689;SDS011;10504;48.762;8.996;2022-08-19T03:21:20;11.80;;;5.03;;
20689;SDS011;10504;48.762;8.996;2022-08-19T03:23:48;13.10;;;4.80;;
20689;SDS011;10504;48.762;8.996;2022-08-19T03:26:15;14.27;;;6.17;;
20689;SDS011;10504;48.762;8.996;2022-08-19T03:28:41;14.07;;;6.57;;
20689;SDS011;10504;48.762;8.996;2022-08-19T03:31:12;12.40;;;5.43;;
20689;SDS011;10504;48.762;8.996;2022-08-19T03:33:39;13.10;;;6.00;;
20689;SDS011;10504;48.762;8.996;2022-08-19T03:36:07;14.63;;;5.83;;
20689;SDS011;10504;48.762;8.996;2022-08-19T03:38:39;14.43;;;5.97;;
20689;SDS011;10504;48.762;8.996;2022-08-19T03:41:07;14.20;;;5.73;;
20689;SDS011;10504;48.762;8.996;2022-08-19T03:43:38;16.37;;;6.23;;
20689;SDS011;10504;48.762;8.996;2022-08-19T03:46:06;14.80;;;6.23;;
20689;SDS011;10504;48.762;8.996;2022-08-19T03:48:34;15.00;;;5.67;;
20689;SDS011;10504;48.762;8.996;2022-08-19T03:51:01;13.03;;;5.57;;
20689;SDS011;10504;48.762;8.996;2022-08-19T03:53:28;14.30;;;6.33;;
20689;SDS011;10504;48.762;8.996;2022-08-19T03:55:55;17.43;;;6.90;;
20689;SDS011;10504;48.762;8.996;2022-08-19T03:58:21;16.63;;;6.97;;
20689;SDS011;10504;48.762;8.996;2022-08-19T04:00:48;13.17;;;5.37;;
20689;SDS011;10504;48.762;8.996;2022-08-19T04:03:14;17.90;;;5.50;;
20689;SDS011;10504;48.762;8.996;2022-08-19T04:05:40;14.17;;;5.93;;
20689;SDS011;10504;48.762;8.996;2022-08-19T04:08:05;14.70;;;6.67;;
20689;SDS011;10504;48.762;8.996;2022-08-19T04:10:37;16.63;;;7.27;;
20689;SDS011;10504;48.762;8.996;2022-08-19T04:13:05;16.70;;;6.33;;
20689;SDS011;10504;48.762;8.996;2022-08-19T04:15:32;16.50;;;6.33;;
20689;SDS011;10504;48.762;8.996;2022-08-19T04:18:04;11.60;;;5.73;;
20689;SDS011;10504;48.762;8.996;2022-08-19T04:20:32;12.70;;;5.87;;
20689;SDS011;10504;48.762;8.996;2022-08-19T04:23:03;15.00;;;6.17;;
20689;SDS011;10504;48.762;8.996;2022-08-19T04:25:34;16.43;;;6.70;;
20689;SDS011;10504;48.762;8.996;2022-08-19T04:28:01;15.17;;;5.90;;
20689;SDS011;10504;48.762;8.996;2022-08-19T04:30:26;13.20;;;5.77;;
20689;SDS011;10504;48.762;8.996;2022-08-19T04:32:52;14.27;;;5.90;;
20689;SDS011;10504;48.762;8.996;2022-08-19T04:35:17;14.57;;;5.40;;
20689;SDS011;10504;48.762;8.996;2022-08-19T04:37:43;17.73;;;7.73;;
20689;SDS011;10504;48.762;8.996;2022-08-19T04:40:09;16.13;;;5.80;;
20689;SDS011;10504;48.762;8.996;2022-08-19T04:43:10;14.50;;;6.07;;
20689;SDS011;10504;48.762;8.996;2022-08-19T04:45:41;17.37;;;7.00;;
20689;SDS011;10504;48.762;8.996;2022-08-19T04:48:08;17.23;;;7.87;;
20689;SDS011;10504;48.762;8.996;2022-08-19T04:50:35;18.30;;;7.33;;
20689;SDS011;10504;48.762;8.996;2022-08-19T04:53:00;17.33;;;5.93;;
20689;SDS011;10504;48.762;8.996;2022-08-19T04:55:26;14.93;;;6.17;;
20689;SDS011;10504;48.762;8.996;2022-08-19T04:57:52;14.13;;;7.00;;
20689;SDS011;10504;48.762;8.996;2022-08-19T05:00:19;18.67;;;6.20;;
20689;SDS011;10504;48.762;8.996;2022-08-19T05:02:44;11.77;;;5.63;;
20689;SDS011;10504;48.762;8.996;2022-08-19T05:05:10;16.27;;;6.60;;
20689;SDS011;10504;48.762;8.996;2022-08-19T05:07:37;15.70;;;6.70;;
20689;SDS011;10504;48.762;8.996;2022-08-19T05:10:04;18.07;;;7.73;;
20689;SDS011;10504;48.762;8.996;2022-08-19T05:12:30;16.33;;;6.57;;
20689;SDS011;10504;48.762;8.996;2022-08-19T05:14:57;13.73;;;6.17;;
20689;SDS011;10504;48.762;8.996;2022-08-19T05:17:23;14.50;;;7.27;;
20689;SDS011;10504;48.762;8.996;2022-08-19T05:19:50;15.20;;;7.30;;
20689;SDS011;10504;48.762;8.996;2022-08-19T05:22:34;14.27;;;6.90;;
20689;SDS011;10504;48.762;8.996;2022-08-19T05:25:04;12.87;;;5.50;;
20689;SDS011;10504;48.762;8.996;2022-08-19T05:27:37;15.57;;;6.87;;
20689;SDS011;10504;48.762;8.996;2022-08-19T05:30:03;16.37;;;6.17;;
20689;SDS011;10504;48.762;8.996;2022-08-19T05:32:30;14.03;;;6.90;;
20689;SDS011;10504;48.762;8.996;2022-08-19T05:34:55;16.50;;;6.37;;
20689;SDS011;10504;48.762;8.996;2022-08-19T05:37:21;14.93;;;6.43;;
20689;SDS011;10504;48.762;8.996;2022-08-19T05:39:47;11.60;;;5.83;;
20689;SDS011;10504;48.762;8.996;2022-08-19T05:42:14;17.10;;;6.90;;
20689;SDS011;10504;48.762;8.996;2022-08-19T05:44:41;15.63;;;7.50;;
20689;SDS011;10504;48.762;8.996;2022-08-19T05:47:09;12.90;;;5.17;;
20689;SDS011;10504;48.762;8.996;2022-08-19T05:49:36;12.73;;;5.50;;
20689;SDS011;10504;48.762;8.996;2022-08-19T05:52:10;14.20;;;5.87;;
20689;SDS011;10504;48.762;8.996;2022-08-19T05:54:38;14.57;;;7.30;;
20689;SDS011;10504;48.762;8.996;2022-08-19T05:57:06;13.07;;;5.60;;
20689;SDS011;10504;48.762;8.996;2022-08-19T05:59:33;13.90;;;6.63;;
20689;SDS011;10504;48.762;8.996;2022-08-19T06:02:00;14.60;;;6.87;;
20689;SDS011;10504;48.762;8.996;2022-08-19T06:04:27;16.37;;;7.63;;
20689;SDS011;10504;48.762;8.996;2022-08-19T06:06:53;15.53;;;6.57;;
20689;SDS011;10504;48.762;8.996;2022-08-19T06:09:20;13.30;;;5.97;;
20689;SDS011;10504;48.762;8.996;2022-08-19T06:11:54;14.13;;;6.53;;
20689;SDS011;10504;48.762;8.996;2022-08-19T06:14:25;14.17;;;6.50;;
20689;SDS011;10504;48.762;8.996;2022-08-19T06:16:55;13.77;;;5.63;;
20689;SDS011;10504;48.762;8.996;2022-08-19T06:19:22;17.17;;;7.13;;
20689;SDS011;10504;48.762;8.996;2022-08-19T06:21:50;14.80;;;5.87;;
20689;SDS011;10504;48.762;8.996;2022-08-19T06:24:17;15.80;;;6.83;;
20689;SDS011;10504;48.762;8.996;2022-08-19T06:26:46;17.53;;;6.50;;
20689;SDS011;10504;48.762;8.996;2022-08-19T06:29:13;15.60;;;6.90;;
20689;SDS011;10504;48.762;8.996;2022-08-19T06:31:46;15.90;;;6.23;;
20689;SDS011;10504;48.762;8.996;2022-08-19T06:34:14;14.97;;;6.13;;
20689;SDS011;10504;48.762;8.996;2022-08-19T06:36:42;12.50;;;5.40;;
20689;SDS011;10504;48.762;8.996;2022-08-19T06:39:10;15.10;;;6.53;;
20689;SDS011;10504;48.762;8.996;2022-08-19T06:41:39;13.80;;;5.03;;
20689;SDS011;10504;48.762;8.996;2022-08-19T06:44:07;14.27;;;5.33;;
20689;SDS011;10504;48.762;8.996;2022-08-19T06:46:33;24.70;;;6.03;;
20689;SDS011;10504;48.762;8.996;2022-08-19T06:48:59;15.60;;;5.60;;
20689;SDS011;10504;48.762;8.996;2022-08-19T06:51:25;14.10;;;6.03;;
20689;SDS011;10504;48.762;8.996;2022-08-19T06:53:52;12.90;;;5.50;;
20689;SDS011;10504;48.762;8.996;2022-08-19T06:56:19;14.87;;;5.50;;
20689;SDS011;10504;48.762;8.996;2022-08-19T06:58:50;13.27;;;5.77;;
20689;SDS011;10504;48.762;8.996;2022-08-19T07:01:17;16.70;;;6.47;;
20689;SDS011;10504;48.762;8.996;2022-08-19T07:03:44;13.90;;;5.80;;
20689;SDS011;10504;48.762;8.996;2022-08-19T07:06:13;13.30;;;5.77;;
20689;SDS011;10504;48.762;8.996;2022-08-19T07:08:42;14.97;;;6.60;;
20689;SDS011;10504;48.762;8.996;2022-08-19T07:11:09;15.13;;;5.80;;
20689;SDS011;10504;48.762;8.996;2022-08-19T07:13:37;13.30;;;5.13;;
20689;SDS011;10504;48.762;8.996;2022-08-19T07:16:04;14.80;;;6.17;;
20689;SDS011;10504;48.762;8.996;2022-08-19T07:18:38;13.33;;;5.43;;
20689;SDS011;10504;48.762;8.996;2022-08-19T07:21:05;11.83;;;5.40;;
20689;SDS011;10504;48.762;8.996;2022-08-19T07:23:33;13.23;;;5.93;;
20689;SDS011;10504;48.762;8.996;2022-08-19T07:26:06;11.53;;;4.60;;
20689;SDS011;10504;48.762;8.996;2022-08-19T07:28:31;13.23;;;5.77;;
20689;SDS011;10504;48.762;8.996;2022-08-19T07:30:57;11.40;;;5.60;;
20689;SDS011;10504;48.762;8.996;2022-08-19T07:33:23;13.80;;;6.03;;
20689;SDS011;10504;48.762;8.996;2022-08-19T07:35:49;11.87;;;4.70;;
20689;SDS011;10504;48.762;8.996;2022-08-19T07:38:15;13.57;;;5.63;;
20689;SDS011;10504;48.762;8.996;2022-08-19T07:40:41;11.07;;;4.30;;
20689;SDS011;10504;48.762;8.996;2022-08-19T07:43:10;14.13;;;6.27;;
20689;SDS011;10504;48.762;8.996;2022-08-19T07:45:36;10.70;;;4.87;;
20689;SDS011;10504;48.762;8.996;2022-08-19T07:48:02;10.57;;;4.80;;
20689;SDS011;10504;48.762;8.996;2022-08-19T07:50:28;12.13;;;5.40;;
20689;SDS011;10504;48.762;8.996;2022-08-19T07:52:54;11.97;;;5.83;;
20689;SDS011;10504;48.762;8.996;2022-08-19T07:55:22;12.67;;;5.30;;
20689;SDS011;10504;48.762;8.996;2022-08-19T07:57:49;13.00;;;4.70;;
20689;SDS011;10504;48.762;8.996;2022-08-19T08:00:17;11.07;;;4.53;;
20689;SDS011;10504;48.762;8.996;2022-08-19T08:02:43;11.07;;;5.13;;
20689;SDS011;10504;48.762;8.996;2022-08-19T08:05:09;10.47;;;4.40;;
20689;SDS011;10504;48.762;8.996;2022-08-19T08:07:54;13.57;;;5.60;;
20689;SDS011;10504;48.762;8.996;2022-08-19T08:10:38;11.73;;;4.50;;
20689;SDS011;10504;48.762;8.996;2022-08-19T08:13:04;14.07;;;5.03;;
20689;SDS011;10504;48.762;8.996;2022-08-19T08:15:31;10.57;;;4.73;;
20689;SDS011;10504;48.762;8.996;2022-08-19T08:17:57;11.90;;;5.07;;
20689;SDS011;10504;48.762;8.996;2022-08-19T08:20:23;12.97;;;5.67;;
20689;SDS011;10504;48.762;8.996;2022-08-19T08:22:49;11.90;;;5.30;;
20689;SDS011;10504;48.762;8.996;2022-08-19T08:25:33;10.97;;;5.23;;
20689;SDS011;10504;48.762;8.996;2022-08-19T08:28:01;13.23;;;5.53;;
20689;SDS011;10504;48.762;8.996;2022-08-19T08:30:27;12.20;;;4.83;;
20689;SDS011;10504;48.762;8.996;2022-08-19T08:32:55;13.97;;;5.60;;
20689;SDS011;10504;48.762;8.996;2022-08-19T08:35:22;12.03;;;5.43;;
20689;SDS011;10504;48.762;8.996;2022-08-19T08:37:49;15.30;;;5.50;;
20689;SDS011;10504;48.762;8.996;2022-08-19T08:40:27;15.93;;;6.17;;
20689;SDS011;10504;48.762;8.996;2022-08-19T08:42:57;12.33;;;5.33;;
20689;SDS011;10504;48.762;8.996;2022-08-19T08:45:34;12.43;;;4.80;;
20689;SDS011;10504;48.762;8.996;2022-08-19T08:48:05;14.10;;;5.63;;
20689;SDS011;10504;48.762;8.996;2022-08-19T08:50:39;11.30;;;5.03;;
20689;SDS011;10504;48.762;8.996;2022-08-19T08:53:08;13.53;;;5.63;;
20689;SDS011;10504;48.762;8.996;2022-08-19T08:55:36;8.30;;;3.93;;
20689;SDS011;10504;48.762;8.996;2022-08-19T08:58:17;11.80;;;5.63;;
20689;SDS011;10504;48.762;8.996;2022-08-19T09:00:55;12.90;;;4.93;;
20689;SDS011;10504;48.762;8.996;2022-08-19T09:03:25;10.77;;;4.87;;
20689;SDS011;10504;48.762;8.996;2022-08-19T09:06:06;11.10;;;4.57;;
20689;SDS011;10504;48.762;8.996;2022-08-19T09:08:59;12.00;;;5.33;;
20689;SDS011;10504;48.762;8.996;2022-08-19T09:17:10;19.57;;;5.87;;
20689;SDS011;10504;48.762;8.996;2022-08-19T09:19:48;11.43;;;4.70;;
20689;SDS011;10504;48.762;8.996;2022-08-19T09:22:36;12.10;;;5.13;;
20689;SDS011;10504;48.762;8.996;2022-08-19T09:25:03;13.47;;;4.90;;
20689;SDS011;10504;48.762;8.996;2022-08-19T09:27:30;11.37;;;5.03;;
20689;SDS011;10504;48.762;8.996;2022-08-19T09:29:57;12.70;;;5.23;;
20689;SDS011;10504;48.762;8.996;2022-08-19T09:32:23;14.10;;;5.40;;
20689;SDS011;10504;48.762;8.996;2022-08-19T09:34:50;11.90;;;4.40;;
20689;SDS011;10504;48.762;8.996;2022-08-19T09:37:19;10.97;;;4.80;;
20689;SDS011;10504;48.762;8.996;2022-08-19T09:39:45;11.53;;;4.67;;
20689;SDS011;10504;48.762;8.996;2022-08-19T09:42:11;14.63;;;5.60;;
20689;SDS011;10504;48.762;8.996;2022-08-19T09:44:39;12.53;;;4.47;;
20689;SDS011;10504;48.762;8.996;2022-08-19T09:47:05;10.87;;;4.37;;
20689;SDS011;10504;48.762;8.996;2022-08-19T09:49:32;10.03;;;4.40;;
20689;SDS011;10504;48.762;8.996;2022-08-19T09:51:58;11.33;;;4.43;;
20689;SDS011;10504;48.762;8.996;2022-08-19T09:54:25;8.93;;;3.90;;
20689;SDS011;10504;48.762;8.996;2022-08-19T09:56:54;9.40;;;3.60;;
20689;SDS011;10504;48.762;8.996;2022-08-19T09:59:20;10.97;;;3.83;;
20689;SDS011;10504;48.762;8.996;2022-08-19T10:01:46;11.83;;;4.37;;
20689;SDS011;10504;48.762;8.996;2022-08-19T10:04:12;11.70;;;4.77;;
20689;SDS011;10504;48.762;8.996;2022-08-19T10:06:38;10.83;;;4.70;;
20689;SDS011;10504;48.762;8.996;2022-08-19T10:09:06;9.00;;;3.93;;
20689;SDS011;10504;48.762;8.996;2022-08-19T10:11:33;8.83;;;3.43;;
20689;SDS011;10504;48.762;8.996;2022-08-19T10:13:59;10.97;;;3.90;;
20689;SDS011;10504;48.762;8.996;2022-08-19T10:16:26;8.37;;;3.70;;
20689;SDS011;10504;48.762;8.996;2022-08-19T10:18:51;8.23;;;3.47;;
20689;SDS011;10504;48.762;8.996;2022-08-19T10:21:19;7.80;;;3.57;;
20689;SDS011;10504;48.762;8.996;2022-08-19T10:23:48;9.70;;;3.37;;
20689;SDS011;10504;48.762;8.996;2022-08-19T10:26:17;9.07;;;3.93;;
20689;SDS011;10504;48.762;8.996;2022-08-19T10:28:44;9.60;;;3.63;;
20689;SDS011;10504;48.762;8.996;2022-08-19T10:31:11;10.83;;;4.43;;
20689;SDS011;10504;48.762;8.996;2022-08-19T10:33:40;7.90;;;3.50;;
20689;SDS011;10504;48.762;8.996;2022-08-19T10:36:07;8.37;;;3.33;;
20689;SDS011;10504;48.762;8.996;2022-08-19T10:38:45;6.37;;;2.77;;
20689;SDS011;10504;48.762;8.996;2022-08-19T10:41:15;10.17;;;3.90;;
20689;SDS011;10504;48.762;8.996;2022-08-19T10:43:49;7.57;;;2.97;;
20689;SDS011;10504;48.762;8.996;2022-08-19T10:46:17;9.60;;;4.20;;
20689;SDS011;10504;48.762;8.996;2022-08-19T10:48:43;7.30;;;2.90;;
20689;SDS011;10504;48.762;8.996;2022-08-19T10:51:10;10.37;;;3.97;;
20689;SDS011;10504;48.762;8.996;2022-08-19T10:53:55;7.93;;;2.87;;
20689;SDS011;10504;48.762;8.996;2022-08-19T10:56:21;8.10;;;2.80;;
20689;SDS011;10504;48.762;8.996;2022-08-19T10:59:06;6.67;;;2.77;;
20689;SDS011;10504;48.762;8.996;2022-08-19T11:01:32;7.23;;;2.90;;
20689;SDS011;10504;48.762;8.996;2022-08-19T11:03:59;9.73;;;4.20;;
20689;SDS011;10504;48.762;8.996;2022-08-19T11:06:27;8.60;;;3.23;;
20689;SDS011;10504;48.762;8.996;2022-08-19T11:08:53;8.27;;;3.57;;
20689;SDS011;10504;48.762;8.996;2022-08-19T11:11:19;8.73;;;3.30;;
20689;SDS011;10504;48.762;8.996;2022-08-19T11:13:48;8.20;;;4.10;;
20689;SDS011;10504;48.762;8.996;2022-08-19T11:16:19;7.90;;;3.23;;
20689;SDS011;10504;48.762;8.996;2022-08-19T11:18:50;8.07;;;2.77;;
20689;SDS011;10504;48.762;8.996;2022-08-19T11:21:20;8.73;;;2.83;;
20689;SDS011;10504;48.762;8.996;2022-08-19T11:23:51;9.00;;;3.00;;
20689;SDS011;10504;48.762;8.996;2022-08-19T11:26:19;5.90;;;2.87;;
20689;SDS011;10504;48.762;8.996;2022-08-19T11:28:46;6.27;;;2.60;;
20689;SDS011;10504;48.762;8.996;2022-08-19T11:31:13;5.37;;;2.33;;
20689;SDS011;10504;48.762;8.996;2022-08-19T11:33:41;5.43;;;2.73;;
20689;SDS011;10504;48.762;8.996;2022-08-19T11:36:07;5.27;;;2.60;;
20689;SDS011;10504;48.762;8.996;2022-08-19T11:38:33;5.27;;;2.40;;
20689;SDS011;10504;48.762;8.996;2022-08-19T11:41:01;5.17;;;2.67;;
20689;SDS011;10504;48.762;8.996;2022-08-19T11:43:29;6.63;;;2.47;;
20689;SDS011;10504;48.762;8.996;2022-08-19T11:45:55;6.30;;;2.40;;
20689;SDS011;10504;48.762;8.996;2022-08-19T11:48:22;4.17;;;2.00;;
20689;SDS011;10504;48.762;8.996;2022-08-19T11:50:52;6.33;;;2.30;;
20689;SDS011;10504;48.762;8.996;2022-08-19T11:53:21;5.40;;;2.40;;
20689;SDS011;10504;48.762;8.996;2022-08-19T11:55:48;4.07;;;2.13;;
20689;SDS011;10504;48.762;8.996;2022-08-19T11:58:15;3.97;;;2.13;;
20689;SDS011;10504;48.762;8.996;2022-08-19T12:00:42;4.80;;;2.20;;
20689;SDS011;10504;48.762;8.996;2022-08-19T12:03:10;5.93;;;2.33;;
20689;SDS011;10504;48.762;8.996;2022-08-19T12:05:36;5.77;;;2.23;;
20689;SDS011;10504;48.762;8.996;2022-08-19T12:08:03;4.83;;;2.37;;
20689;SDS011;10504;48.762;8.996;2022-08-19T12:10:29;4.10;;;2.20;;
20689;SDS011;10504;48.762;8.996;2022-08-19T12:12:55;2.87;;;1.60;;
20689;SDS011;10504;48.762;8.996;2022-08-19T12:15:21;4.07;;;1.77;;
20689;SDS011;10504;48.762;8.996;2022-08-19T12:17:46;4.83;;;1.87;;
20689;SDS011;10504;48.762;8.996;2022-08-19T12:20:12;3.87;;;1.70;;
20689;SDS011;10504;48.762;8.996;2022-08-19T12:22:40;5.53;;;2.47;;
20689;SDS011;10504;48.762;8.996;2022-08-19T12:25:08;3.93;;;1.67;;
20689;SDS011;10504;48.762;8.996;2022-08-19T12:27:35;6.67;;;2.53;;
20689;SDS011;10504;48.762;8.996;2022-08-19T12:30:02;6.67;;;2.43;;
20689;SDS011;10504;48.762;8.996;2022-08-19T12:32:29;5.60;;;2.27;;
20689;SDS011;10504;48.762;8.996;2022-08-19T12:34:54;4.33;;;2.03;;
20689;SDS011;10504;48.762;8.996;2022-08-19T12:37:20;16.53;;;2.50;;
20689;SDS011;10504;48.762;8.996;2022-08-19T12:39:46;4.97;;;2.07;;
20689;SDS011;10504;48.762;8.996;2022-08-19T12:42:12;4.77;;;1.70;;
20689;SDS011;10504;48.762;8.996;2022-08-19T12:44:39;3.00;;;1.87;;
20689;SDS011;10504;48.762;8.996;2022-08-19T12:47:08;5.00;;;2.13;;
20689;SDS011;10504;48.762;8.996;2022-08-19T12:49:35;4.97;;;2.27;;
20689;SDS011;10504;48.762;8.996;2022-08-19T12:52:02;3.63;;;2.13;;
20689;SDS011;10504;48.762;8.996;2022-08-19T12:54:29;5.67;;;2.40;;
20689;SDS011;10504;48.762;8.996;2022-08-19T12:56:56;4.80;;;2.20;;
20689;SDS011;10504;48.762;8.996;2022-08-19T12:59:23;3.87;;;2.23;;
20689;SDS011;10504;48.762;8.996;2022-08-19T13:01:48;2.57;;;1.50;;
20689;SDS011;10504;48.762;8.996;2022-08-19T13:04:14;5.83;;;1.83;;
20689;SDS011;10504;48.762;8.996;2022-08-19T13:06:41;2.90;;;1.87;;
20689;SDS011;10504;48.762;8.996;2022-08-19T13:09:07;3.00;;;1.87;;
20689;SDS011;10504;48.762;8.996;2022-08-19T13:11:34;3.07;;;2.00;;
20689;SDS011;10504;48.762;8.996;2022-08-19T13:14:00;4.23;;;1.93;;
20689;SDS011;10504;48.762;8.996;2022-08-19T13:16:27;4.03;;;1.93;;
20689;SDS011;10504;48.762;8.996;2022-08-19T13:18:53;4.30;;;1.97;;
20689;SDS011;10504;48.762;8.996;2022-08-19T13:21:21;3.37;;;1.80;;
20689;SDS011;10504;48.762;8.996;2022-08-19T13:23:48;2.43;;;1.73;;
20689;SDS011;10504;48.762;8.996;2022-08-19T13:26:14;2.93;;;1.87;;
20689;SDS011;10504;48.762;8.996;2022-08-19T13:28:40;3.33;;;1.77;;
20689;SDS011;10504;48.762;8.996;2022-08-19T13:31:27;4.43;;;2.23;;
20689;SDS011;10504;48.762;8.996;2022-08-19T13:34:13;3.13;;;1.60;;
20689;SDS011;10504;48.762;8.996;2022-08-19T13:36:40;3.70;;;2.00;;
20689;SDS011;10504;48.762;8.996;2022-08-19T13:39:06;3.97;;;1.97;;
20689;SDS011;10504;48.762;8.996;2022-08-19T13:41:33;4.70;;;2.10;;
20689;SDS011;10504;48.762;8.996;2022-08-19T13:43:59;4.77;;;2.00;;
20689;SDS011;10504;48.762;8.996;2022-08-19T13:46:27;5.73;;;2.20;;
20689;SDS011;10504;48.762;8.996;2022-08-19T13:48:55;4.40;;;2.47;;
20689;SDS011;10504;48.762;8.996;2022-08-19T13:51:22;4.10;;;1.87;;
20689;SDS011;10504;48.762;8.996;2022-08-19T13:53:47;3.53;;;2.10;;
20689;SDS011;10504;48.762;8.996;2022-08-19T13:56:14;7.13;;;2.17;;
20689;SDS011;10504;48.762;8.996;2022-08-19T13:58:41;3.97;;;2.20;;
20689;SDS011;10504;48.762;8.996;2022-08-19T14:01:07;3.67;;;2.03;;
20689;SDS011;10504;48.762;8.996;2022-08-19T14:03:34;5.33;;;2.47;;
20689;SDS011;10504;48.762;8.996;2022-08-19T14:06:00;3.80;;;1.83;;
20689;SDS011;10504;48.762;8.996;2022-08-19T14:08:26;3.73;;;1.90;;
20689;SDS011;10504;48.762;8.996;2022-08-19T14:10:53;5.23;;;3.07;;
20689;SDS011;10504;48.762;8.996;2022-08-19T14:13:20;4.77;;;2.10;;
20689;SDS011;10504;48.762;8.996;2022-08-19T14:15:47;4.57;;;2.27;;
20689;SDS011;10504;48.762;8.996;2022-08-19T14:18:14;5.50;;;2.90;;
20689;SDS011;10504;48.762;8.996;2022-08-19T14:20:41;4.97;;;2.43;;
20689;SDS011;10504;48.762;8.996;2022-08-19T14:23:07;3.63;;;2.07;;
20689;SDS011;10504;48.762;8.996;2022-08-19T14:25:33;4.03;;;2.17;;
20689;SDS011;10504;48.762;8.996;2022-08-19T14:27:59;3.40;;;1.63;;
20689;SDS011;10504;48.762;8.996;2022-08-19T14:30:29;4.10;;;2.00;;
20689;SDS011;10504;48.762;8.996;2022-08-19T14:32:58;3.27;;;2.10;;
20689;SDS011;10504;48.762;8.996;2022-08-19T14:35:25;4.33;;;2.50;;
20689;SDS011;10504;48.762;8.996;2022-08-19T14:37:51;4.93;;;2.13;;
20689;SDS011;10504;48.762;8.996;2022-08-19T14:40:23;3.90;;;2.47;;
20689;SDS011;10504;48.762;8.996;2022-08-19T14:43:01;3.97;;;1.97;;
20689;SDS011;10504;48.762;8.996;2022-08-19T14:45:33;3.37;;;1.90;;
20689;SDS011;10504;48.762;8.996;2022-08-19T14:48:01;4.90;;;2.43;;
20689;SDS011;10504;48.762;8.996;2022-08-19T14:50:27;3.10;;;1.53;;